createdAt,value
2023-03-24T00:00:27.305Z,4.62
2023-03-24T00:01:49.338Z,4.78
2023-03-24T00:03:11.175Z,4.75
2023-03-24T00:04:33.684Z,4.71
2023-03-24T00:05:59.525Z,4.57
2023-03-24T00:07:22.003Z,4.68
2023-03-24T00:08:43.421Z,3.86
2023-03-24T00:11:21.789Z,5.08
2023-03-24T00:12:45.040Z,4.78
2023-03-24T00:14:07.526Z,5.05
2023-03-24T00:15:29.805Z,5.17
2023-03-24T00:16:51.677Z,4.49
2023-03-24T00:18:13.306Z,4.82
2023-03-24T00:19:36.388Z,4.68
2023-03-24T00:20:58.243Z,4.74
2023-03-24T00:22:20.475Z,4.63
2023-03-24T00:23:42.629Z,5.04
2023-03-24T00:25:04.757Z,4.93
2023-03-24T00:26:27.345Z,4.84
2023-03-24T00:27:49.185Z,3.91
2023-03-24T00:29:10.838Z,5.20
2023-03-24T00:30:33.674Z,4.99
2023-03-24T00:31:56.775Z,4.86
2023-03-24T00:34:41.219Z,4.86
2023-03-24T00:37:17.943Z,4.86
2023-03-24T00:38:42.221Z,4.87
2023-03-24T00:40:04.795Z,4.73
2023-03-24T00:41:26.843Z,4.68
2023-03-24T00:42:49.786Z,4.49
2023-03-24T00:44:13.217Z,4.55
2023-03-24T00:45:35.129Z,4.73
2023-03-24T00:46:56.640Z,3.93
2023-03-24T00:48:19.416Z,4.35
2023-03-24T00:49:41.272Z,4.56
2023-03-24T00:51:03.987Z,5.01
2023-03-24T00:52:26.220Z,4.12
2023-03-24T00:53:48.249Z,3.28
2023-03-24T00:55:11.348Z,4.08
2023-03-24T00:56:34.239Z,4.45
2023-03-24T00:57:55.613Z,4.16
2023-03-24T00:59:17.566Z,4.30
2023-03-24T01:00:38.713Z,4.31
2023-03-24T01:02:00.525Z,3.96
2023-03-24T01:03:22.845Z,4.22
2023-03-24T01:04:45.172Z,4.09
2023-03-24T01:06:07.761Z,2.94
2023-03-24T01:07:30.189Z,4.25
2023-03-24T01:08:52.681Z,4.43
2023-03-24T01:11:38.303Z,4.08
2023-03-24T01:13:00.716Z,4.24
2023-03-24T01:14:22.680Z,4.28
2023-03-24T01:15:44.838Z,4.13
2023-03-24T01:17:06.920Z,3.27
2023-03-24T01:18:29.090Z,4.20
2023-03-24T01:19:51.242Z,4.07
2023-03-24T01:21:13.562Z,4.02
2023-03-24T01:22:35.652Z,3.33
2023-03-24T01:23:57.620Z,3.40
2023-03-24T01:25:22.419Z,3.99
2023-03-24T01:26:44.205Z,3.92
2023-03-24T01:28:06.729Z,3.89
2023-03-24T01:29:28.857Z,3.96
2023-03-24T01:30:52.475Z,4.14
2023-03-24T01:32:14.259Z,4.19
2023-03-24T01:33:36.947Z,4.24
2023-03-24T01:34:59.260Z,4.92
2023-03-24T01:36:21.410Z,4.63
2023-03-24T01:37:43.926Z,2.88
2023-03-24T01:39:06.065Z,3.75
2023-03-24T01:40:30.109Z,3.69
2023-03-24T01:41:52.128Z,4.24
2023-03-24T01:43:25.020Z,3.64
2023-03-24T01:46:21.233Z,3.18
2023-03-24T01:47:43.437Z,4.11
2023-03-24T01:49:07.043Z,4.14
2023-03-24T01:51:53.317Z,4.07
2023-03-24T01:53:14.947Z,4.00
2023-03-24T01:54:40.691Z,3.74
2023-03-24T01:56:02.974Z,3.68
2023-03-24T01:57:29.192Z,4.23
2023-03-24T01:58:59.724Z,4.02
2023-03-24T02:00:22.011Z,3.61
2023-03-24T02:01:45.286Z,3.98
2023-03-24T02:03:15.928Z,3.91
2023-03-24T02:04:43.396Z,3.96
2023-03-24T02:06:06.037Z,4.03
2023-03-24T02:08:54.921Z,3.43
2023-03-24T02:10:17.894Z,3.63
2023-03-24T02:11:40.374Z,3.79
2023-03-24T02:13:03.649Z,3.99
2023-03-24T02:15:53.712Z,3.82
2023-03-24T02:17:24.339Z,3.83
2023-03-24T02:19:09.328Z,3.99
2023-03-24T02:22:22.521Z,3.43
2023-03-24T02:24:00.375Z,4.46
2023-03-24T02:25:25.825Z,4.33
2023-03-24T02:26:54.890Z,4.48
2023-03-24T02:28:23.430Z,4.60
2023-03-24T02:30:00.565Z,4.94
2023-03-24T02:33:05.507Z,6.34
2023-03-24T02:34:40.401Z,6.02
2023-03-24T02:36:36.136Z,8.88
2023-03-24T02:38:04.269Z,5.49
2023-03-24T02:41:15.473Z,5.53
2023-03-24T02:42:44.105Z,5.07
2023-03-24T02:44:21.782Z,5.90
2023-03-24T02:45:56.359Z,5.38
2023-03-24T02:47:42.695Z,6.27
2023-03-24T02:49:19.525Z,4.71
2023-03-24T02:52:01.384Z,3.69
2023-03-24T02:53:55.607Z,3.79
2023-03-24T02:56:50.189Z,3.53
2023-03-24T02:58:25.090Z,3.22
2023-03-24T03:00:00.811Z,3.67
2023-03-24T03:01:38.773Z,3.61
2023-03-24T03:03:04.290Z,3.84
2023-03-24T03:04:32.127Z,3.88
2023-03-24T03:05:56.530Z,3.73
2023-03-24T03:07:21.739Z,3.97
2023-03-24T03:08:43.478Z,3.87
2023-03-24T03:10:07.855Z,4.03
2023-03-24T03:11:30.332Z,3.42
2023-03-24T03:14:10.532Z,3.71
2023-03-24T03:15:38.019Z,3.64
2023-03-24T03:17:02.082Z,3.93
2023-03-24T03:18:28.714Z,3.57
2023-03-24T03:19:53.623Z,4.02
2023-03-24T03:21:16.060Z,3.79
2023-03-24T03:22:47.209Z,3.37
2023-03-24T03:24:10.971Z,3.53
2023-03-24T03:25:35.614Z,3.42
2023-03-24T03:27:03.025Z,3.57
2023-03-24T03:28:25.242Z,3.39
2023-03-24T03:29:52.621Z,3.62
2023-03-24T03:31:15.209Z,4.04
2023-03-24T03:32:38.234Z,2.49
2023-03-24T03:34:06.492Z,3.33
2023-03-24T03:35:37.048Z,3.78
2023-03-24T03:37:07.735Z,3.62
2023-03-24T03:38:32.725Z,3.51
2023-03-24T03:40:00.372Z,3.92
2023-03-24T03:41:21.949Z,3.92
2023-03-24T03:42:43.851Z,3.63
2023-03-24T03:44:07.375Z,3.53
2023-03-24T03:45:29.500Z,3.71
2023-03-24T03:46:51.203Z,3.77
2023-03-24T03:48:14.720Z,3.51
2023-03-24T03:49:36.664Z,3.67
2023-03-24T03:51:12.414Z,3.39
2023-03-24T03:52:23.516Z,3.79
2023-03-24T03:53:52.718Z,3.82
2023-03-24T03:55:14.355Z,3.99
2023-03-24T03:56:36.458Z,3.51
2023-03-24T03:57:57.855Z,3.57
2023-03-24T03:59:26.017Z,4.19
2023-03-24T04:00:48.162Z,4.04
2023-03-24T04:03:57.175Z,3.62
2023-03-24T04:05:25.752Z,3.89
2023-03-24T04:07:02.945Z,3.89
2023-03-24T04:08:47.690Z,3.92
2023-03-24T04:10:18.384Z,3.66
2023-03-24T04:12:06.722Z,4.06
2023-03-24T04:15:02.129Z,4.06
2023-03-24T04:16:46.435Z,3.96
2023-03-24T04:19:59.047Z,3.99
2023-03-24T04:21:25.017Z,4.33
2023-03-24T04:23:16.462Z,3.96
2023-03-24T04:24:44.846Z,3.96
2023-03-24T04:26:16.567Z,3.70
2023-03-24T04:29:27.324Z,4.05
2023-03-24T04:30:51.927Z,3.78
2023-03-24T04:32:16.839Z,3.81
2023-03-24T04:33:55.370Z,3.77
2023-03-24T04:35:24.114Z,3.63
2023-03-24T04:36:52.564Z,3.81
2023-03-24T04:38:16.259Z,3.81
2023-03-24T04:39:39.326Z,3.98
2023-03-24T04:41:01.504Z,5.28
2023-03-24T04:43:41.495Z,3.12
2023-03-24T04:45:05.119Z,4.89
2023-03-24T04:46:27.727Z,4.28
2023-03-24T04:47:53.801Z,3.11
2023-03-24T04:49:15.915Z,4.28
2023-03-24T04:50:42.012Z,3.97
2023-03-24T04:52:04.607Z,4.04
2023-03-24T04:53:27.613Z,3.69
2023-03-24T04:54:48.780Z,5.79
2023-03-24T04:57:44.638Z,5.06
2023-03-24T04:59:06.511Z,4.39
2023-03-24T05:00:28.218Z,4.49
2023-03-24T05:01:49.451Z,4.47
2023-03-24T05:03:12.020Z,4.73
2023-03-24T05:04:34.245Z,5.06
2023-03-24T05:05:57.755Z,5.50
2023-03-24T05:07:19.533Z,5.79
2023-03-24T05:08:40.950Z,5.07
2023-03-24T05:10:02.570Z,5.14
2023-03-24T05:12:43.030Z,4.47
2023-03-24T05:14:05.157Z,7.86
2023-03-24T05:15:26.661Z,5.08
2023-03-24T05:16:48.059Z,5.86
2023-03-24T05:18:09.655Z,4.26
2023-03-24T05:19:32.411Z,5.37
2023-03-24T05:20:54.291Z,4.80
2023-03-24T05:22:16.314Z,4.81
2023-03-24T05:23:37.701Z,4.68
2023-03-24T05:24:59.730Z,5.56
2023-03-24T05:26:22.200Z,4.61
2023-03-24T05:27:44.830Z,4.44
2023-03-24T05:29:06.946Z,4.87
2023-03-24T05:30:29.105Z,4.22
2023-03-24T05:31:59.323Z,5.05
2023-03-24T05:33:21.162Z,4.51
2023-03-24T05:34:43.270Z,4.44
2023-03-24T05:36:05.740Z,3.95
2023-03-24T05:37:27.299Z,4.28
2023-03-24T05:38:49.269Z,3.50
2023-03-24T05:40:12.968Z,5.81
2023-03-24T05:41:35.088Z,6.96
2023-03-24T05:42:59.174Z,5.03
2023-03-24T05:44:21.661Z,5.04
2023-03-24T05:45:44.380Z,5.53
2023-03-24T05:48:29.192Z,5.26
2023-03-24T05:49:51.204Z,5.43
2023-03-24T05:51:12.400Z,4.60
2023-03-24T05:52:34.119Z,5.59
2023-03-24T05:53:55.731Z,5.98
2023-03-24T05:55:17.918Z,4.14
2023-03-24T05:56:40.001Z,5.66
2023-03-24T05:58:01.543Z,4.35
2023-03-24T05:59:24.044Z,4.69
2023-03-24T06:00:45.633Z,4.19
2023-03-24T06:02:08.021Z,4.63
2023-03-24T06:03:30.757Z,4.71
2023-03-24T06:04:53.301Z,4.82
2023-03-24T06:06:15.026Z,4.14
2023-03-24T06:07:38.766Z,5.16
2023-03-24T06:09:00.506Z,5.11
2023-03-24T06:10:23.174Z,4.11
2023-03-24T06:11:45.457Z,3.24
2023-03-24T06:13:07.911Z,4.18
2023-03-24T06:14:29.797Z,4.56
2023-03-24T06:15:51.801Z,4.81
2023-03-24T06:17:13.389Z,4.47
2023-03-24T06:18:35.727Z,5.07
2023-03-24T06:19:57.736Z,4.51
2023-03-24T06:21:19.627Z,4.44
2023-03-24T06:22:42.595Z,4.34
2023-03-24T06:25:26.089Z,4.02
2023-03-24T06:26:49.868Z,4.32
2023-03-24T06:28:11.220Z,4.16
2023-03-24T06:29:35.486Z,3.96
2023-03-24T06:30:57.070Z,4.04
2023-03-24T06:32:20.853Z,3.74
2023-03-24T06:33:43.252Z,4.00
2023-03-24T06:35:06.396Z,4.23
2023-03-24T06:36:28.995Z,4.27
2023-03-24T06:39:12.433Z,3.34
2023-03-24T06:40:33.788Z,4.83
2023-03-24T06:41:55.916Z,4.41
2023-03-24T06:43:18.191Z,3.12
2023-03-24T06:44:40.729Z,3.82
2023-03-24T06:46:03.143Z,4.22
2023-03-24T06:47:24.683Z,3.83
2023-03-24T06:48:47.843Z,3.93
2023-03-24T06:50:10.681Z,4.06
2023-03-24T06:51:33.046Z,4.33
2023-03-24T06:53:08.810Z,3.97
2023-03-24T06:54:32.644Z,3.87
2023-03-24T06:55:54.660Z,4.95
2023-03-24T06:57:17.051Z,4.08
2023-03-24T07:00:00.396Z,4.95
2023-03-24T07:01:23.116Z,4.89
2023-03-24T07:02:45.406Z,5.29
2023-03-24T07:04:08.841Z,4.32
2023-03-24T07:05:31.276Z,4.57
2023-03-24T07:07:10.830Z,4.04
2023-03-24T07:08:36.702Z,4.44
2023-03-24T07:09:40.923Z,4.64
2023-03-24T07:11:04.010Z,4.18
2023-03-24T07:12:25.686Z,5.44
2023-03-24T07:13:47.625Z,4.57
2023-03-24T07:15:12.501Z,4.15
2023-03-24T07:16:34.575Z,4.48
2023-03-24T07:17:57.566Z,4.64
2023-03-24T07:19:19.034Z,3.93
2023-03-24T07:20:41.441Z,3.99
2023-03-24T07:22:03.201Z,4.03
2023-03-24T07:23:29.381Z,4.12
2023-03-24T07:24:54.040Z,3.51
2023-03-24T07:26:18.369Z,4.17
2023-03-24T07:27:42.774Z,4.02
2023-03-24T07:29:05.480Z,3.94
2023-03-24T07:30:40.638Z,3.83
2023-03-24T07:31:59.131Z,5.59
2023-03-24T07:33:22.453Z,2.94
2023-03-24T07:34:44.875Z,3.96
2023-03-24T07:36:07.616Z,3.01
2023-03-24T07:37:33.171Z,3.77
2023-03-24T07:38:55.561Z,3.59
2023-03-24T07:41:44.229Z,3.68
2023-03-24T07:43:06.409Z,3.80
2023-03-24T07:44:28.691Z,3.57
2023-03-24T07:45:58.200Z,4.06
2023-03-24T07:47:21.504Z,3.52
2023-03-24T07:48:43.651Z,3.63
2023-03-24T07:50:06.886Z,4.24
2023-03-24T07:51:28.757Z,4.03
2023-03-24T07:52:52.229Z,3.61
2023-03-24T07:54:14.542Z,3.88
2023-03-24T07:55:41.757Z,3.20
2023-03-24T07:57:04.293Z,3.19
2023-03-24T07:58:27.831Z,3.31
2023-03-24T07:59:49.680Z,3.78
2023-03-24T08:01:11.793Z,3.33
2023-03-24T08:02:38.148Z,3.18
2023-03-24T08:04:01.567Z,3.26
2023-03-24T08:05:23.580Z,3.23
2023-03-24T08:06:46.600Z,3.22
2023-03-24T08:08:09.236Z,2.87
2023-03-24T08:09:31.259Z,2.92
2023-03-24T08:10:53.670Z,3.32
2023-03-24T08:12:20.525Z,3.23
2023-03-24T08:13:40.338Z,3.54
2023-03-24T08:15:03.958Z,3.47
2023-03-24T08:16:25.975Z,3.32
2023-03-24T08:17:48.595Z,3.32
2023-03-24T08:19:11.284Z,3.41
2023-03-24T08:20:32.859Z,2.86
2023-03-24T08:21:56.512Z,3.37
2023-03-24T08:23:18.964Z,3.37
2023-03-24T08:24:41.479Z,3.41
2023-03-24T08:26:03.770Z,3.41
2023-03-24T08:27:25.271Z,2.83
2023-03-24T08:28:47.684Z,2.94
2023-03-24T08:30:11.541Z,2.67
2023-03-24T08:31:34.371Z,2.83
2023-03-24T08:34:18.225Z,2.77
2023-03-24T08:35:41.937Z,3.14
2023-03-24T08:37:08.993Z,2.96
2023-03-24T08:38:30.876Z,3.26
2023-03-24T08:39:55.223Z,2.33
2023-03-24T08:41:17.451Z,2.94
2023-03-24T08:42:43.299Z,3.01
2023-03-24T08:44:07.251Z,2.84
2023-03-24T08:45:31.825Z,2.72
2023-03-24T08:48:07.920Z,2.83
2023-03-24T09:01:17.294Z,2.77
2023-03-24T09:02:40.086Z,2.73
2023-03-24T09:05:37.088Z,3.51
2023-03-24T09:06:49.682Z,2.78
2023-03-24T09:08:13.144Z,3.52
2023-03-24T09:09:35.880Z,3.51
2023-03-24T09:10:58.304Z,3.31
2023-03-24T09:12:37.393Z,2.99
2023-03-24T09:13:59.452Z,3.13
2023-03-24T09:15:21.852Z,3.21
2023-03-24T09:16:46.625Z,3.08
2023-03-24T09:18:09.399Z,2.98
2023-03-24T09:19:32.803Z,3.04
2023-03-24T09:21:08.640Z,2.93
2023-03-24T09:22:31.589Z,3.68
2023-03-24T09:26:37.495Z,2.62
2023-03-24T09:28:02.113Z,3.27
2023-03-24T09:29:23.804Z,3.48
2023-03-24T09:30:50.210Z,3.14
2023-03-24T09:32:14.048Z,3.57
2023-03-24T09:33:36.164Z,2.88
2023-03-24T09:34:58.075Z,3.25
2023-03-24T09:36:19.841Z,2.93
2023-03-24T09:37:42.570Z,3.12
2023-03-24T09:39:04.460Z,2.93
2023-03-24T09:40:30.504Z,2.82
2023-03-24T09:41:55.324Z,2.94
2023-03-24T09:44:59.461Z,3.46
2023-03-24T09:46:31.874Z,3.30
2023-03-24T09:48:08.597Z,3.13
2023-03-24T09:49:32.362Z,2.94
2023-03-24T09:50:59.927Z,2.99
2023-03-24T09:52:25.238Z,2.74
2023-03-24T09:53:55.036Z,2.97
2023-03-24T09:55:22.151Z,2.69
2023-03-24T09:58:04.651Z,2.98
2023-03-24T10:01:22.266Z,2.72
2023-03-24T10:02:44.791Z,2.52
2023-03-24T10:04:09.089Z,2.78
2023-03-24T10:05:45.689Z,2.87
2023-03-24T10:07:17.452Z,2.77
2023-03-24T10:08:45.487Z,2.77
2023-03-24T10:10:11.588Z,2.98
2023-03-24T10:11:42.392Z,2.81
2023-03-24T10:13:14.469Z,2.90
2023-03-24T10:14:59.485Z,2.62
2023-03-24T10:16:50.640Z,2.40
2023-03-24T10:18:27.786Z,2.42
2023-03-24T10:20:13.746Z,2.48
2023-03-24T10:21:36.046Z,2.94
2023-03-24T10:23:04.490Z,2.67
2023-03-24T10:28:28.878Z,2.90
2023-03-24T10:29:53.608Z,2.56
2023-03-24T10:31:16.222Z,2.58
2023-03-24T10:32:40.600Z,2.88
2023-03-24T10:34:02.790Z,3.14
2023-03-24T10:35:29.298Z,2.86
2023-03-24T10:36:51.232Z,3.27
2023-03-24T10:38:17.563Z,2.93
2023-03-24T10:39:44.914Z,3.32
2023-03-24T10:41:05.435Z,3.54
2023-03-24T10:42:30.488Z,5.19
2023-03-24T10:43:53.402Z,3.51
2023-03-24T10:45:24.544Z,3.13
2023-03-24T10:46:58.976Z,3.12
2023-03-24T10:48:45.763Z,3.58
2023-03-24T10:50:14.318Z,3.56
2023-03-24T10:51:33.824Z,3.93
2023-03-24T10:52:56.622Z,5.37
2023-03-24T10:55:39.350Z,4.19
2023-03-24T11:08:46.433Z,3.56
2023-03-24T11:22:15.988Z,4.69
2023-03-24T11:23:41.359Z,4.81
2023-03-24T11:25:05.735Z,4.61
2023-03-24T11:26:35.865Z,4.29
2023-03-24T11:28:03.960Z,4.62
2023-03-24T11:29:26.234Z,3.72
2023-03-24T11:32:14.141Z,3.93
2023-03-24T11:33:45.916Z,3.74
2023-03-24T11:35:08.648Z,3.84
2023-03-24T11:36:47.102Z,3.99
2023-03-24T11:39:40.431Z,3.59
2023-03-24T11:41:03.160Z,3.49
2023-03-24T11:42:32.172Z,3.33
2023-03-24T11:44:22.391Z,3.47
2023-03-24T11:45:44.363Z,3.29
2023-03-24T11:47:13.329Z,3.28
2023-03-24T11:48:43.766Z,4.31
2023-03-24T11:50:14.301Z,3.47
2023-03-24T11:51:38.788Z,3.34
2023-03-24T11:53:19.005Z,3.71
2023-03-24T11:54:41.622Z,3.68
2023-03-24T11:56:24.295Z,4.42
2023-03-24T11:57:59.647Z,4.04
2023-03-24T11:59:44.547Z,3.88
2023-03-24T12:01:22.320Z,3.72
2023-03-24T12:04:20.966Z,3.70
2023-03-24T12:07:29.337Z,3.82
2023-03-24T12:09:18.141Z,3.32
2023-03-24T12:11:08.129Z,3.59
2023-03-24T12:14:05.449Z,3.49
2023-03-24T12:16:03.993Z,3.04
2023-03-24T12:17:41.963Z,2.69
2023-03-24T12:19:10.495Z,2.93
2023-03-24T12:22:22.854Z,2.23
2023-03-24T12:35:53.776Z,2.48
2023-03-24T12:38:58.139Z,2.32
2023-03-24T12:40:47.314Z,2.53
2023-03-24T12:42:23.471Z,2.63
2023-03-24T12:44:11.517Z,2.50
2023-03-24T12:45:40.611Z,2.67
2023-03-24T12:47:21.296Z,2.50
2023-03-24T12:50:39.665Z,2.43
2023-03-24T12:52:22.834Z,2.58
2023-03-24T12:54:10.902Z,2.80
2023-03-24T12:55:42.495Z,2.68
2023-03-24T12:57:07.932Z,2.83
2023-03-24T12:58:49.236Z,2.87
2023-03-24T13:00:23.577Z,2.68
2023-03-24T13:03:27.126Z,3.27
2023-03-24T13:04:49.871Z,3.39
2023-03-24T13:07:46.402Z,2.40
2023-03-24T13:21:19.786Z,2.35
2023-03-24T13:24:10.531Z,2.69
2023-03-24T13:25:57.742Z,2.62
2023-03-24T13:29:16.868Z,2.83
2023-03-24T13:30:40.872Z,2.46
2023-03-24T13:32:24.596Z,2.20
2023-03-24T13:33:47.947Z,2.51
2023-03-24T13:35:29.851Z,2.24
2023-03-24T13:36:54.664Z,2.28
2023-03-24T13:38:40.405Z,2.14
2023-03-24T13:40:22.771Z,2.17
2023-03-24T13:43:36.890Z,1.71
2023-03-24T13:46:14.733Z,1.89
2023-03-24T13:49:03.854Z,1.53
2023-03-24T13:50:26.009Z,1.92
2023-03-24T13:51:47.786Z,2.53
2023-03-24T13:53:15.296Z,1.85
2023-03-24T13:54:37.753Z,1.86
2023-03-24T13:57:22.828Z,2.06
2023-03-24T14:00:22.315Z,2.36
2023-03-24T14:01:44.938Z,2.30
2023-03-24T14:03:15.974Z,2.85
2023-03-24T14:04:50.247Z,2.71
2023-03-24T14:06:17.048Z,2.65
2023-03-24T14:07:43.533Z,2.72
2023-03-24T14:09:05.862Z,2.61
2023-03-24T14:10:46.166Z,2.44
2023-03-24T14:12:13.381Z,2.67
2023-03-24T14:13:37.050Z,2.72
2023-03-24T14:15:16.866Z,3.07
2023-03-24T14:16:52.430Z,2.98
2023-03-24T14:18:26.723Z,2.37
2023-03-24T14:20:01.304Z,2.57
2023-03-24T14:22:45.790Z,3.56
2023-03-24T14:24:16.359Z,2.69
2023-03-24T14:25:41.487Z,2.52
2023-03-24T14:27:26.679Z,2.42
2023-03-24T14:28:53.493Z,2.37
2023-03-24T14:31:37.007Z,2.80
2023-03-24T14:33:00.022Z,3.18
2023-03-24T14:34:22.274Z,2.52
2023-03-24T14:35:45.637Z,2.93
2023-03-24T14:37:07.407Z,2.96
2023-03-24T14:38:31.194Z,3.21
2023-03-24T14:39:52.685Z,2.91
2023-03-24T14:41:15.859Z,2.91
2023-03-24T14:42:43.996Z,2.93
2023-03-24T14:44:05.472Z,3.32
2023-03-24T14:45:40.192Z,3.26
2023-03-24T14:47:01.863Z,2.93
2023-03-24T14:48:34.307Z,3.01
2023-03-24T14:49:56.782Z,3.24
2023-03-24T14:51:33.900Z,3.58
2023-03-24T14:52:59.086Z,3.54
2023-03-24T14:54:30.700Z,3.29
2023-03-24T14:55:53.359Z,3.14
2023-03-24T14:57:35.993Z,2.86
2023-03-24T14:58:58.385Z,3.06
2023-03-24T15:02:28.644Z,2.90
2023-03-24T15:04:02.230Z,2.81
2023-03-24T15:06:54.659Z,3.31
2023-03-24T15:08:19.566Z,3.48
2023-03-24T15:09:45.561Z,3.00
2023-03-24T15:11:09.456Z,3.33
2023-03-24T15:12:31.775Z,2.85
2023-03-24T15:13:54.879Z,2.31
2023-03-24T15:16:35.755Z,1.67
2023-03-24T15:17:59.636Z,2.28
2023-03-24T15:19:27.167Z,2.21
2023-03-24T15:20:50.019Z,2.30
2023-03-24T15:22:13.067Z,2.01
2023-03-24T15:23:37.530Z,2.32
2023-03-24T15:24:59.598Z,2.43
2023-03-24T15:27:38.797Z,2.86
2023-03-24T15:29:07.107Z,2.71
2023-03-24T15:30:28.668Z,2.66
2023-03-24T15:31:50.377Z,2.83
2023-03-24T15:33:14.296Z,2.78
2023-03-24T15:34:42.605Z,2.89
2023-03-24T15:36:08.090Z,2.43
2023-03-24T15:37:41.016Z,2.81
2023-03-24T15:40:32.023Z,3.06
2023-03-24T15:41:53.964Z,3.29
2023-03-24T15:43:21.592Z,3.04
2023-03-24T15:44:44.155Z,3.24
2023-03-24T15:46:14.877Z,2.77
2023-03-24T15:47:40.742Z,3.28
2023-03-24T15:49:03.435Z,3.01
2023-03-24T15:50:34.061Z,3.06
2023-03-24T15:52:04.150Z,3.46
2023-03-24T15:53:28.565Z,3.16
2023-03-24T15:54:51.361Z,2.92
2023-03-24T15:56:29.777Z,3.13
2023-03-24T15:57:51.232Z,3.39
2023-03-24T16:00:39.404Z,3.03
2023-03-24T16:02:03.929Z,3.07
2023-03-24T16:03:25.856Z,3.26
2023-03-24T16:04:54.296Z,2.57
2023-03-24T16:06:15.832Z,3.50
2023-03-24T16:07:37.212Z,2.87
2023-03-24T16:10:35.022Z,3.08
2023-03-24T16:11:56.691Z,3.12
2023-03-24T16:13:20.185Z,3.58
2023-03-24T16:14:44.351Z,2.88
2023-03-24T16:17:39.150Z,2.70
2023-03-24T16:19:01.863Z,2.97
2023-03-24T16:20:23.906Z,2.81
2023-03-24T16:21:45.213Z,2.73
2023-03-24T16:23:10.491Z,3.18
2023-03-24T16:24:32.402Z,2.99
2023-03-24T16:25:53.978Z,3.03
2023-03-24T16:27:16.842Z,3.36
2023-03-24T16:28:38.820Z,3.58
2023-03-24T16:30:03.990Z,3.39
2023-03-24T16:31:31.165Z,3.71
2023-03-24T16:32:57.669Z,4.05
2023-03-24T16:34:22.210Z,5.02
2023-03-24T16:35:44.799Z,3.58
2023-03-24T16:37:07.628Z,3.45
2023-03-24T16:39:55.301Z,4.07
2023-03-24T16:41:17.797Z,2.96
2023-03-24T16:42:39.940Z,4.77
2023-03-24T16:44:02.827Z,3.74
2023-03-24T16:45:24.592Z,4.16
2023-03-24T16:46:47.238Z,4.43
2023-03-24T16:48:11.882Z,4.19
2023-03-24T16:49:34.477Z,4.19
2023-03-24T16:50:57.317Z,5.13
2023-03-24T16:52:20.725Z,9.08
2023-03-24T16:53:43.031Z,7.50
2023-03-24T16:55:05.091Z,3.76
2023-03-24T16:56:26.882Z,3.72
2023-03-24T16:57:48.437Z,5.71
2023-03-24T16:59:09.768Z,6.17
2023-03-24T17:00:32.532Z,5.96
2023-03-24T17:01:54.888Z,8.42
2023-03-24T17:03:17.352Z,8.55
2023-03-24T17:04:39.820Z,6.78
2023-03-24T17:06:01.732Z,7.91
2023-03-24T17:07:23.942Z,6.94
2023-03-24T17:08:46.176Z,8.42
2023-03-24T17:10:08.562Z,9.13
2023-03-24T17:11:32.274Z,8.74
2023-03-24T17:12:54.721Z,13.46
2023-03-24T17:14:18.798Z,13.20
2023-03-24T17:15:43.104Z,11.96
2023-03-24T17:17:06.299Z,11.21
2023-03-24T17:18:27.816Z,9.50
2023-03-24T17:19:51.174Z,14.94
2023-03-24T17:21:15.889Z,10.72
2023-03-24T17:22:38.390Z,13.24
2023-03-24T17:24:00.518Z,14.04
2023-03-24T17:25:22.617Z,16.14
2023-03-24T17:26:44.891Z,17.53
2023-03-24T17:29:28.474Z,18.97
2023-03-24T17:30:50.871Z,18.03
2023-03-24T17:32:29.670Z,19.95
2023-03-24T17:33:53.983Z,42.73
2023-03-24T17:35:17.295Z,45.11
2023-03-24T17:36:38.967Z,44.92
2023-03-24T17:38:01.433Z,37.03
2023-03-24T17:39:24.784Z,22.03
2023-03-24T17:40:47.085Z,28.06
2023-03-24T17:42:09.199Z,27.65
2023-03-24T17:43:32.733Z,24.48
2023-03-24T17:44:54.966Z,24.14
2023-03-24T17:46:21.186Z,23.64
2023-03-24T17:47:44.862Z,17.38
2023-03-24T17:49:07.809Z,15.55
2023-03-24T17:50:29.234Z,14.47
2023-03-24T17:51:51.837Z,14.43
2023-03-24T17:54:33.314Z,14.39
2023-03-24T17:56:00.742Z,14.32
2023-03-24T17:57:22.500Z,15.36
2023-03-24T17:58:46.451Z,18.87
2023-03-24T18:00:09.779Z,16.92
2023-03-24T18:01:32.083Z,21.78
2023-03-24T18:02:55.566Z,19.29
2023-03-24T18:04:18.388Z,18.78
2023-03-24T18:05:41.149Z,22.22
2023-03-24T18:07:04.054Z,18.73
2023-03-24T18:08:26.304Z,18.84
2023-03-24T18:09:47.840Z,21.32
2023-03-24T18:11:12.812Z,20.13
2023-03-24T18:12:37.171Z,19.43
2023-03-24T18:13:59.208Z,19.46
2023-03-24T18:15:22.534Z,14.94
2023-03-24T18:16:44.437Z,13.79
2023-03-24T18:18:07.161Z,19.09
2023-03-24T18:19:28.727Z,17.41
2023-03-24T18:20:51.678Z,16.88
2023-03-24T18:22:14.529Z,18.90
2023-03-24T18:23:37.094Z,11.01
2023-03-24T18:24:59.419Z,7.78
2023-03-24T18:26:21.752Z,8.87
2023-03-24T18:27:44.000Z,7.82
2023-03-24T18:29:07.583Z,6.34
2023-03-24T18:30:31.734Z,6.77
2023-03-24T18:31:53.748Z,8.04
2023-03-24T18:33:17.030Z,6.12
2023-03-24T18:34:38.786Z,5.60
2023-03-24T18:36:01.184Z,5.11
2023-03-24T18:37:23.326Z,6.50
2023-03-24T18:38:45.073Z,4.58
2023-03-24T18:40:08.078Z,4.80
2023-03-24T18:42:51.431Z,3.02
2023-03-24T18:44:13.785Z,2.58
2023-03-24T18:45:36.484Z,1.72
2023-03-24T18:48:22.732Z,1.69
2023-03-24T18:49:44.682Z,1.58
2023-03-24T18:51:06.547Z,1.73
2023-03-24T18:52:29.068Z,1.46
2023-03-24T18:53:50.919Z,1.61
2023-03-24T18:55:12.400Z,1.37
2023-03-24T18:56:34.757Z,1.70
2023-03-24T18:57:56.933Z,1.18
2023-03-24T18:59:18.544Z,1.68
2023-03-24T19:00:41.796Z,1.15
2023-03-24T19:02:03.750Z,1.44
2023-03-24T19:03:26.377Z,1.67
2023-03-24T19:04:48.018Z,1.66
2023-03-24T19:07:31.211Z,1.54
2023-03-24T19:08:53.333Z,1.69
2023-03-24T19:10:16.118Z,1.44
2023-03-24T19:11:40.120Z,1.15
2023-03-24T19:13:03.897Z,1.23
2023-03-24T19:14:26.229Z,1.44
2023-03-24T19:15:52.352Z,1.61
2023-03-24T19:17:13.917Z,1.84
2023-03-24T19:18:36.271Z,2.54
2023-03-24T19:19:58.491Z,2.25
2023-03-24T19:21:20.487Z,2.56
2023-03-24T19:22:42.213Z,2.22
2023-03-24T19:24:04.538Z,2.16
2023-03-24T19:25:26.775Z,1.24
2023-03-24T19:26:49.295Z,2.34
2023-03-24T19:28:10.562Z,1.71
2023-03-24T19:29:34.219Z,1.66
2023-03-24T19:30:56.998Z,1.70
2023-03-24T19:32:18.910Z,1.73
2023-03-24T19:33:41.535Z,1.53
2023-03-24T19:35:03.938Z,1.82
2023-03-24T19:36:26.178Z,1.59
2023-03-24T19:37:47.842Z,2.17
2023-03-24T19:39:09.580Z,2.08
2023-03-24T19:40:31.621Z,2.64
2023-03-24T19:41:53.185Z,2.56
2023-03-24T19:43:14.877Z,2.73
2023-03-24T19:44:36.897Z,2.34
2023-03-24T19:45:58.963Z,2.33
2023-03-24T19:47:20.541Z,2.60
2023-03-24T19:48:45.769Z,2.23
2023-03-24T19:50:08.447Z,2.45
2023-03-24T19:51:30.780Z,2.93
2023-03-24T19:52:53.350Z,2.86
2023-03-24T19:54:15.403Z,4.46
2023-03-24T19:55:37.393Z,5.58
2023-03-24T19:56:59.013Z,10.12
2023-03-24T19:58:20.492Z,6.92
2023-03-24T19:59:41.861Z,7.88
2023-03-24T20:01:03.519Z,6.38
2023-03-24T20:02:25.954Z,5.24
2023-03-24T20:03:48.262Z,4.89
2023-03-24T20:05:10.503Z,5.70
2023-03-24T20:06:31.695Z,5.07
2023-03-24T20:07:53.812Z,5.26
2023-03-24T20:09:16.213Z,5.07
2023-03-24T20:10:38.245Z,5.33
2023-03-24T20:12:00.359Z,5.37
2023-03-24T20:13:22.615Z,4.02
2023-03-24T20:14:45.675Z,4.86
2023-03-24T20:16:08.134Z,4.39
2023-03-24T20:17:32.242Z,4.51
2023-03-24T20:18:56.383Z,4.23
2023-03-24T20:20:20.299Z,4.21
2023-03-24T20:21:42.486Z,4.26
2023-03-24T20:23:05.940Z,4.44
2023-03-24T20:24:28.312Z,4.55
2023-03-24T20:25:50.363Z,4.19
2023-03-24T20:28:36.941Z,4.56
2023-03-24T20:30:00.392Z,5.42
2023-03-24T20:31:22.540Z,5.56
2023-03-24T20:32:45.474Z,5.20
2023-03-24T20:34:13.153Z,5.33
2023-03-24T20:35:36.339Z,5.78
2023-03-24T20:36:58.454Z,6.18
2023-03-24T20:38:19.814Z,6.26
2023-03-24T20:39:41.019Z,6.79
2023-03-24T20:41:05.369Z,6.64
2023-03-24T20:42:28.471Z,7.67
2023-03-24T20:43:50.766Z,7.38
2023-03-24T20:45:14.795Z,7.27
2023-03-24T20:46:36.861Z,7.71
2023-03-24T20:47:58.628Z,7.40
2023-03-24T20:49:21.177Z,7.72
2023-03-24T20:50:42.835Z,7.57
2023-03-24T20:52:05.537Z,7.46
2023-03-24T20:53:28.092Z,7.76
2023-03-24T20:54:50.512Z,7.19
2023-03-24T20:56:12.640Z,7.44
2023-03-24T20:57:35.252Z,7.61
2023-03-24T20:58:57.116Z,7.64
2023-03-24T21:00:18.939Z,7.31
2023-03-24T21:01:40.843Z,7.52
2023-03-24T21:03:02.503Z,7.28
2023-03-24T21:04:23.890Z,7.38
2023-03-24T21:05:45.900Z,7.33
2023-03-24T21:07:07.862Z,7.11
2023-03-24T21:08:29.508Z,7.43
2023-03-24T21:09:52.411Z,7.64
2023-03-24T21:11:14.163Z,7.33
2023-03-24T21:12:35.783Z,7.01
2023-03-24T21:14:00.356Z,6.62
2023-03-24T21:16:36.397Z,5.79
2023-03-24T21:17:58.762Z,6.83
2023-03-24T21:19:20.778Z,7.11
2023-03-24T21:22:03.966Z,6.76
2023-03-24T21:23:26.060Z,5.32
2023-03-24T21:24:48.298Z,6.12
2023-03-24T21:27:37.809Z,6.68
2023-03-24T21:30:21.554Z,7.02
2023-03-24T21:31:46.332Z,7.06
2023-03-24T21:33:09.677Z,6.76
2023-03-24T21:34:30.997Z,6.86
2023-03-24T21:35:54.433Z,7.06
2023-03-24T21:37:15.988Z,7.84
2023-03-24T21:38:38.540Z,7.79
2023-03-24T21:40:00.034Z,6.85